Time;durP1;ratioP1;P1;durP2;ratioP2;P2;SDS_P1;SDS_P2;PMS_P1;PMS_P2;Temp;Humidity;BMP_temperature;BMP_pressure;BME280_temperature;BME280_humidity;BME280_pressure;Samples;Min_cycle;Max_cycle;Signal;HPM_P1;HPM_P2
2021/12/03 00:00:24;;;;;;;6.77;6.07;;;;;;;4.31;66.04;93862.72;5042158;28;20289;-64
2021/12/03 00:02:49;;;;;;;8.33;5.87;;;;;;;4.47;65.69;93866.50;5048760;28;20205;-66
2021/12/03 00:05:15;;;;;;;6.90;6.03;;;;;;;4.51;65.56;93857.44;5044252;28;20198;-66
2021/12/03 00:07:42;;;;;;;7.47;6.30;;;;;;;4.58;65.35;93853.31;5039278;28;20285;-65
2021/12/03 00:10:11;;;;;;;6.80;6.03;;;;;;;4.69;64.63;93865.31;5045198;28;20209;-64
2021/12/03 00:12:37;;;;;;;8.43;6.33;;;;;;;4.61;65.07;93842.59;5048059;28;20214;-64
2021/12/03 00:15:05;;;;;;;7.57;6.40;;;;;;;4.54;65.51;93857.16;5042012;28;20199;-64
2021/12/03 00:17:30;;;;;;;7.27;5.73;;;;;;;4.58;65.37;93854.13;5042641;28;20263;-65
2021/12/03 00:19:56;;;;;;;10.80;6.33;;;;;;;4.66;65.55;93835.19;5042033;28;20221;-64
2021/12/03 00:22:21;;;;;;;7.40;5.67;;;;;;;4.53;66.32;93847.72;5042937;28;20317;-64
2021/12/03 00:24:47;;;;;;;9.13;6.20;;;;;;;4.68;65.24;93884.50;5045690;28;20221;-65
2021/12/03 00:27:12;;;;;;;7.33;6.40;;;;;;;4.53;65.61;93871.13;5049539;28;20236;-65
2021/12/03 00:29:38;;;;;;;7.63;6.33;;;;;;;4.61;66.15;93858.22;5040912;28;20256;-64
2021/12/03 00:32:04;;;;;;;7.70;6.50;;;;;;;4.72;65.49;93865.03;5044181;28;20235;-64
2021/12/03 00:34:29;;;;;;;8.37;6.50;;;;;;;4.66;65.75;93824.75;5040672;28;20289;-66
2021/12/03 00:36:55;;;;;;;9.30;6.33;;;;;;;4.66;65.43;93845.59;5042108;28;20226;-65
2021/12/03 00:39:21;;;;;;;7.20;6.00;;;;;;;4.74;65.54;93868.31;5044050;28;20213;-65
2021/12/03 00:41:49;;;;;;;7.07;5.67;;;;;;;4.75;65.33;93854.31;5038290;28;20206;-64
2021/12/03 00:44:15;;;;;;;6.67;5.60;;;;;;;4.72;66.36;93872.84;5042745;28;20236;-66
2021/12/03 00:46:40;;;;;;;7.33;6.17;;;;;;;4.72;66.72;93881.47;5048575;28;20293;-67
2021/12/03 00:49:06;;;;;;;6.97;6.27;;;;;;;4.67;67.24;93864.63;5036831;28;20270;-67
2021/12/03 00:51:32;;;;;;;7.30;6.00;;;;;;;4.68;67.52;93874.91;5040496;28;20221;-65
2021/12/03 00:53:57;;;;;;;5.90;5.30;;;;;;;4.79;66.10;93866.09;5026307;28;20261;-65
2021/12/03 00:56:23;;;;;;;5.67;4.53;;;;;;;4.82;65.83;93856.19;5040420;28;20206;-67
2021/12/03 00:58:48;;;;;;;6.33;5.50;;;;;;;4.98;65.43;93845.13;5041430;28;20248;-64
2021/12/03 01:01:15;;;;;;;5.37;4.17;;;;;;;5.27;64.74;93839.75;5043775;28;20213;-65
2021/12/03 01:03:41;;;;;;;5.23;4.30;;;;;;;5.42;64.69;93847.84;5042054;28;20236;-64
2021/12/03 01:06:08;;;;;;;6.57;4.90;;;;;;;5.27;65.10;93875.41;5037246;28;20215;-64
2021/12/03 01:08:35;;;;;;;6.90;5.43;;;;;;;5.12;65.07;93872.47;5031906;28;20214;-66
2021/12/03 01:11:03;;;;;;;7.63;5.27;;;;;;;5.11;65.38;93842.19;5041315;28;20222;-65
2021/12/03 01:13:29;;;;;;;6.90;4.83;;;;;;;5.18;65.89;93860.63;5040462;28;20220;-65
2021/12/03 01:15:54;;;;;;;8.47;5.37;;;;;;;5.13;66.59;93871.50;5043752;28;20217;-64
2021/12/03 01:18:20;;;;;;;5.67;4.90;;;;;;;5.17;65.93;93875.47;5043972;28;20225;-65
2021/12/03 01:20:47;;;;;;;5.63;5.00;;;;;;;5.22;65.87;93873.25;5048993;28;20205;-64
2021/12/03 01:23:14;;;;;;;4.90;3.87;;;;;;;5.43;65.46;93835.66;5043377;28;20217;-64
2021/12/03 01:25:40;;;;;;;4.50;4.10;;;;;;;5.45;65.01;93863.22;5037084;28;20254;-66
2021/12/03 01:28:08;;;;;;;4.10;3.27;;;;;;;5.74;63.73;93831.66;5040720;28;20234;-63
2021/12/03 01:30:34;;;;;;;4.10;3.40;;;;;;;5.74;64.12;93842.06;5044046;28;20221;-64
2021/12/03 01:33:05;;;;;;;6.37;4.07;;;;;;;5.64;64.83;93866.59;5047133;28;20201;-64
2021/12/03 01:35:31;;;;;;;4.67;3.50;;;;;;;5.71;64.08;93878.09;5054234;28;20224;-64
2021/12/03 01:37:57;;;;;;;4.73;3.50;;;;;;;5.85;64.00;93848.03;5038733;28;20215;-65
2021/12/03 01:40:25;;;;;;;3.50;3.17;;;;;;;5.80;64.46;93834.63;5038995;28;20233;-64
2021/12/03 01:42:51;;;;;;;4.07;3.13;;;;;;;5.82;64.36;93837.91;5053158;28;20229;-65
2021/12/03 01:45:21;;;;;;;4.90;3.47;;;;;;;5.90;63.86;93835.34;5038902;28;20233;-64
2021/12/03 01:47:48;;;;;;;3.97;3.03;;;;;;;5.96;64.23;93830.38;5051926;28;20202;-65
2021/12/03 01:50:15;;;;;;;4.90;3.30;;;;;;;5.77;65.09;93837.53;5040599;28;20217;-64
2021/12/03 01:52:41;;;;;;;4.10;3.30;;;;;;;5.61;66.26;93849.47;5053226;28;20228;-64
2021/12/03 01:55:11;;;;;;;5.03;3.37;;;;;;;5.53;66.71;93844.19;5045249;28;20279;-64
2021/12/03 01:57:37;;;;;;;4.23;3.03;;;;;;;5.63;66.10;93847.53;5047307;28;20211;-65
2021/12/03 02:00:11;;;;;;;3.43;2.57;;;;;;;6.09;64.01;93798.63;5045516;28;20202;-65
2021/12/03 02:02:36;;;;;;;3.97;2.40;;;;;;;6.22;63.67;93807.84;5038706;28;20202;-65
2021/12/03 02:05:03;;;;;;;3.57;2.77;;;;;;;6.22;63.54;93810.47;5046916;28;20214;-65
2021/12/03 02:07:28;;;;;;;3.00;2.27;;;;;;;6.30;62.97;93805.28;5043715;28;20222;-64
2021/12/03 02:09:54;;;;;;;4.10;2.53;;;;;;;6.33;63.03;93800.56;5041351;28;20288;-64
2021/12/03 02:12:19;;;;;;;3.07;2.77;;;;;;;6.39;63.13;93835.72;5044352;28;20218;-65
2021/12/03 02:14:45;;;;;;;2.30;2.10;;;;;;;6.54;62.54;93813.22;5038592;28;20206;-65
2021/12/03 02:17:10;;;;;;;3.77;2.30;;;;;;;6.48;62.94;93813.88;5043725;28;20233;-65
2021/12/03 02:19:36;;;;;;;2.57;2.07;;;;;;;6.47;62.94;93796.56;5053652;28;20206;-66
2021/12/03 02:22:02;;;;;;;4.33;2.60;;;;;;;6.51;63.22;93804.91;5044210;28;20281;-65
2021/12/03 02:24:27;;;;;;;3.53;2.53;;;;;;;6.57;63.11;93828.59;5045728;28;20230;-65
2021/12/03 02:26:53;;;;;;;2.43;2.13;;;;;;;6.54;63.10;93835.94;5037641;28;20206;-65
2021/12/03 02:29:19;;;;;;;3.57;2.57;;;;;;;6.60;62.44;93757.78;5041807;28;20218;-66
2021/12/03 02:31:45;;;;;;;3.37;2.17;;;;;;;6.67;62.83;93796.31;5053556;28;20232;-65
2021/12/03 02:34:10;;;;;;;2.87;1.90;;;;;;;6.60;63.00;93809.16;5047383;28;20214;-65
2021/12/03 02:36:35;;;;;;;2.27;1.80;;;;;;;6.60;63.06;93807.41;5046281;28;20236;-66
2021/12/03 02:39:01;;;;;;;3.53;2.10;;;;;;;6.59;63.17;93799.72;5044803;28;20205;-65
2021/12/03 02:41:27;;;;;;;3.03;1.70;;;;;;;6.75;62.73;93780.66;5048816;28;20265;-65
2021/12/03 02:43:53;;;;;;;2.93;2.00;;;;;;;6.81;62.78;93793.91;5042469;28;20218;-65
2021/12/03 02:46:19;;;;;;;3.50;1.77;;;;;;;6.86;62.32;93777.75;5043918;28;20281;-65
2021/12/03 02:48:44;;;;;;;1.73;1.37;;;;;;;6.93;62.33;93773.53;5048606;28;20256;-66
2021/12/03 02:51:10;;;;;;;1.97;1.60;;;;;;;6.91;62.20;93799.00;5042550;28;20233;-64
2021/12/03 02:53:37;;;;;;;1.77;1.30;;;;;;;7.01;62.27;93804.91;5046739;28;20287;-65
2021/12/03 02:56:04;;;;;;;1.93;1.40;;;;;;;7.05;61.88;93789.72;5046727;28;20238;-65
2021/12/03 02:58:29;;;;;;;2.03;1.60;;;;;;;6.98;62.37;93804.41;5042790;28;20255;-64
2021/12/03 03:00:56;;;;;;;3.00;1.70;;;;;;;6.92;62.78;93784.13;5047473;28;20229;-64
2021/12/03 03:03:22;;;;;;;2.30;1.60;;;;;;;6.87;62.57;93805.53;5045025;28;20215;-64
2021/12/03 03:05:57;;;;;;;1.60;1.50;;;;;;;7.01;62.25;93812.75;5045436;28;20281;-64
2021/12/03 03:08:24;;;;;;;2.43;1.77;;;;;;;7.01;61.74;93812.75;5044957;28;20213;-64
2021/12/03 03:10:50;;;;;;;1.77;1.60;;;;;;;7.11;61.15;93833.53;5044813;28;20217;-64
2021/12/03 03:13:16;;;;;;;3.40;1.40;;;;;;;7.08;61.28;93815.53;5045599;28;20232;-64
2021/12/03 03:15:42;;;;;;;2.17;1.80;;;;;;;7.18;61.17;93820.63;5044561;28;20226;-65
2021/12/03 03:18:12;;;;;;;3.40;1.63;;;;;;;7.16;61.51;93827.81;5044424;28;20229;-66
2021/12/03 03:20:41;;;;;;;2.47;1.60;;;;;;;7.20;60.91;93813.44;5044144;28;20198;-65
2021/12/03 03:23:07;;;;;;;3.03;1.73;;;;;;;7.14;60.79;93814.91;5045607;28;20225;-64
2021/12/03 03:25:33;;;;;;;2.83;1.80;;;;;;;7.05;61.65;93810.63;5043313;28;20281;-65
2021/12/03 03:27:58;;;;;;;2.33;1.87;;;;;;;7.01;61.62;93809.31;5042886;28;21062;-65
2021/12/03 03:30:24;;;;;;;3.23;2.10;;;;;;;7.08;61.06;93807.69;5043996;28;20225;-65
2021/12/03 03:32:50;;;;;;;2.40;2.07;;;;;;;7.03;61.42;93805.56;5040604;28;20232;-63
2021/12/03 03:35:17;;;;;;;3.30;2.00;;;;;;;7.09;61.29;93829.44;5046388;28;20202;-64
2021/12/03 03:37:42;;;;;;;2.37;1.80;;;;;;;7.07;60.43;93801.66;5045044;28;20214;-64
2021/12/03 03:40:09;;;;;;;2.33;2.00;;;;;;;7.01;61.03;93804.91;5048456;28;20281;-64
2021/12/03 03:42:35;;;;;;;2.03;1.80;;;;;;;6.98;61.34;93820.91;5046441;28;20219;-64
2021/12/03 03:45:09;;;;;;;2.20;2.00;;;;;;;6.96;61.16;93837.72;5054742;28;20229;-64
2021/12/03 03:47:35;;;;;;;3.80;2.13;;;;;;;6.96;60.44;93819.44;5041316;28;20267;-65
2021/12/03 03:50:00;;;;;;;2.20;2.00;;;;;;;6.89;60.59;93808.78;5042326;28;20293;-67
2021/12/03 03:52:30;;;;;;;3.57;2.20;;;;;;;6.83;60.76;93838.16;5042928;28;20221;-63
2021/12/03 03:54:56;;;;;;;3.97;2.20;;;;;;;6.70;62.22;93829.97;5060213;28;20300;-64
2021/12/03 03:57:21;;;;;;;2.30;2.07;;;;;;;6.78;61.01;93832.59;5042044;28;20232;-63
2021/12/03 03:59:47;;;;;;;2.77;2.00;;;;;;;6.69;61.82;93847.44;5047455;28;20216;-63
2021/12/03 04:02:13;;;;;;;2.53;2.23;;;;;;;6.67;61.22;93840.72;5045105;28;20197;-63
2021/12/03 04:04:38;;;;;;;4.57;2.13;;;;;;;6.72;60.80;93828.00;5043715;28;20217;-63
2021/12/03 04:07:05;;;;;;;2.73;1.73;;;;;;;6.87;59.83;93816.00;5044093;28;20281;-65
2021/12/03 04:09:30;;;;;;;2.70;2.27;;;;;;;6.81;60.46;93845.34;5043234;28;20222;-63
2021/12/03 04:11:57;;;;;;;3.13;2.27;;;;;;;6.68;60.67;93835.31;5042411;28;20218;-63
2021/12/03 04:14:22;;;;;;;4.63;2.37;;;;;;;6.72;60.42;93825.41;5042207;28;20209;-64
2021/12/03 04:16:48;;;;;;;3.80;2.60;;;;;;;6.77;60.29;93834.41;5044586;28;20249;-65
2021/12/03 04:19:14;;;;;;;3.67;2.27;;;;;;;6.79;59.15;93818.53;5049378;28;20225;-65
2021/12/03 04:21:40;;;;;;;3.00;2.50;;;;;;;6.75;59.28;93851.22;5053898;28;20224;-65
2021/12/03 04:24:06;;;;;;;3.00;2.17;;;;;;;6.75;59.36;93852.03;5044989;28;20234;-65
2021/12/03 04:26:32;;;;;;;3.30;2.53;;;;;;;6.60;59.84;93825.69;5043479;28;20210;-66
2021/12/03 04:28:58;;;;;;;4.20;2.17;;;;;;;6.57;60.20;93827.78;5044545;28;20230;-64
2021/12/03 04:31:24;;;;;;;2.40;2.20;;;;;;;6.63;59.67;93833.22;5043981;28;20226;-67
2021/12/03 04:33:50;;;;;;;3.30;2.40;;;;;;;6.54;60.22;93834.13;5047804;28;20233;-67
2021/12/03 04:36:15;;;;;;;2.87;2.40;;;;;;;6.54;60.61;93844.56;5043649;28;20281;-66
2021/12/03 04:38:41;;;;;;;2.50;2.30;;;;;;;6.67;59.78;93848.56;5041855;28;20221;-64
2021/12/03 04:41:07;;;;;;;2.70;2.50;;;;;;;6.78;59.08;93830.78;5047829;28;20324;-64
2021/12/03 04:43:32;;;;;;;4.00;2.50;;;;;;;6.61;60.09;93855.22;5040371;28;20221;-64
2021/12/03 04:45:58;;;;;;;3.73;2.67;;;;;;;6.59;61.00;93852.75;5041258;28;20229;-67
2021/12/03 04:48:24;;;;;;;5.20;2.33;;;;;;;6.57;60.33;93853.88;5035366;28;20218;-64
2021/12/03 04:50:50;;;;;;;3.07;2.60;;;;;;;6.51;60.95;93864.97;5041176;28;20213;-63
2021/12/03 04:53:17;;;;;;;3.03;2.60;;;;;;;6.50;61.40;93858.13;5043753;28;20213;-64
2021/12/03 04:55:43;;;;;;;4.47;2.80;;;;;;;6.50;61.48;93855.50;5043278;28;20214;-64
2021/12/03 04:58:09;;;;;;;2.63;2.43;;;;;;;6.51;61.62;93855.34;5045596;28;20236;-64
2021/12/03 05:00:40;;;;;;;4.60;2.77;;;;;;;6.44;61.09;93875.19;5042765;28;20223;-65
2021/12/03 05:03:07;;;;;;;3.00;2.30;;;;;;;6.55;60.76;93881.97;5041633;28;20237;-63
2021/12/03 05:05:34;;;;;;;3.83;2.40;;;;;;;6.66;60.62;93860.00;5046829;28;20217;-63
2021/12/03 05:08:04;;;;;;;5.90;3.17;;;;;;;6.72;60.76;93867.19;5040787;28;20221;-63
2021/12/03 05:10:33;;;;;;;4.07;2.43;;;;;;;6.71;60.55;93876.00;5035345;28;20283;-63
2021/12/03 05:13:09;;;;;;;2.80;2.30;;;;;;;6.74;60.35;93883.53;5042688;28;20238;-64
2021/12/03 05:15:35;;;;;;;3.17;2.27;;;;;;;6.79;59.70;93860.34;5041745;28;20219;-66
2021/12/03 05:18:01;;;;;;;3.30;2.43;;;;;;;6.74;59.99;93833.91;5042488;28;20218;-66
2021/12/03 05:20:28;;;;;;;2.90;2.43;;;;;;;6.82;60.23;93878.34;5049999;28;20225;-65
2021/12/03 05:22:54;;;;;;;4.00;2.30;;;;;;;6.73;61.10;93889.72;5046080;28;20221;-63
2021/12/03 05:25:21;;;;;;;3.57;2.13;;;;;;;6.84;60.01;93894.66;5047829;28;20225;-65
2021/12/03 05:27:47;;;;;;;4.57;3.00;;;;;;;6.85;60.34;93878.84;5046463;28;20281;-64
2021/12/03 05:30:12;;;;;;;3.07;2.80;;;;;;;6.85;60.37;93878.84;5046414;28;20213;-64
2021/12/03 05:32:39;;;;;;;4.10;2.40;;;;;;;6.88;61.02;93887.34;5041096;28;20214;-64
2021/12/03 05:35:06;;;;;;;4.33;2.97;;;;;;;6.88;60.56;93877.72;5038905;28;20260;-64
2021/12/03 05:37:32;;;;;;;4.37;3.07;;;;;;;6.85;60.95;93898.94;5032837;28;20226;-64
2021/12/03 05:39:57;;;;;;;4.27;3.03;;;;;;;7.07;59.32;93918.47;5040147;28;20217;-64
2021/12/03 05:42:23;;;;;;;4.73;3.80;;;;;;;6.99;59.92;93927.09;5044441;28;20237;-64
2021/12/03 05:44:48;;;;;;;4.97;3.90;;;;;;;6.96;60.08;93882.97;5046672;28;20240;-64
2021/12/03 05:47:14;;;;;;;4.93;4.03;;;;;;;6.90;60.63;93901.09;5041866;28;20205;-64
2021/12/03 05:49:39;;;;;;;4.63;2.93;;;;;;;6.97;59.99;93913.34;5043816;28;20230;-64
2021/12/03 05:52:05;;;;;;;3.50;2.60;;;;;;;7.07;60.02;93910.63;5044627;28;20226;-65
2021/12/03 05:54:31;;;;;;;4.70;2.83;;;;;;;7.12;60.13;93929.25;5055038;28;20272;-63
2021/12/03 05:56:56;;;;;;;5.00;3.07;;;;;;;7.11;59.59;93903.28;5042903;28;20205;-64
2021/12/03 05:59:22;;;;;;;3.73;2.70;;;;;;;7.15;60.57;93933.38;5044705;28;20202;-64
2021/12/03 06:01:48;;;;;;;7.70;2.73;;;;;;;7.07;60.78;93934.97;5044602;28;20233;-63
2021/12/03 06:04:13;;;;;;;3.70;3.40;;;;;;;7.13;60.37;93920.44;5042917;28;20284;-64
2021/12/03 06:06:39;;;;;;;4.93;3.10;;;;;;;7.21;60.33;93919.66;5041596;28;20237;-63
2021/12/03 06:09:05;;;;;;;3.83;2.97;;;;;;;7.22;60.13;93900.41;5042011;28;20213;-64
2021/12/03 06:11:30;;;;;;;3.97;2.47;;;;;;;7.29;59.67;93923.09;5046136;28;20640;-63
2021/12/03 06:13:56;;;;;;;5.43;3.20;;;;;;;7.30;60.47;93921.34;5049956;28;20221;-63
2021/12/03 06:16:22;;;;;;;6.07;2.87;;;;;;;7.38;59.81;93934.44;5048717;28;20281;-62
2021/12/03 06:18:47;;;;;;;3.53;2.50;;;;;;;7.51;59.45;93934.81;5041697;28;20217;-63
2021/12/03 06:21:14;;;;;;;4.47;3.00;;;;;;;7.58;59.49;93934.97;5046507;28;20233;-62
2021/12/03 06:23:41;;;;;;;3.93;2.40;;;;;;;7.57;59.29;93929.91;5045206;28;20218;-63
2021/12/03 06:26:08;;;;;;;6.77;2.87;;;;;;;7.54;59.60;93910.13;5043004;28;20230;-65
2021/12/03 06:28:34;;;;;;;3.60;3.20;;;;;;;7.54;59.89;93930.19;5043937;28;20229;-64
2021/12/03 06:31:00;;;;;;;2.70;2.50;;;;;;;7.59;59.99;93938.41;5037872;28;20260;-62
2021/12/03 06:33:25;;;;;;;4.80;2.40;;;;;;;7.69;59.53;93912.91;5041153;28;20226;-62
2021/12/03 06:35:52;;;;;;;6.50;2.67;;;;;;;7.81;59.01;93937.81;5042581;28;20228;-63
2021/12/03 06:38:18;;;;;;;3.07;2.10;;;;;;;7.87;58.35;93921.44;5039395;28;20206;-63
2021/12/03 06:40:44;;;;;;;3.93;2.50;;;;;;;7.94;58.08;93950.41;5045166;28;20293;-64
2021/12/03 06:43:10;;;;;;;2.90;2.10;;;;;;;7.95;58.32;93952.84;5045798;28;20218;-63
2021/12/03 06:45:36;;;;;;;5.20;2.43;;;;;;;7.90;58.86;93951.72;5043972;28;20229;-62
2021/12/03 06:48:02;;;;;;;3.63;2.67;;;;;;;7.96;58.87;93948.44;5042302;28;20215;-65
2021/12/03 06:50:29;;;;;;;4.27;2.80;;;;;;;8.03;58.24;93964.34;5052553;28;20209;-63
2021/12/03 06:53:10;;;;;;;4.50;2.60;;;;;;;8.05;58.51;93968.44;5040618;28;20230;-64
2021/12/03 06:55:52;;;;;;;3.53;2.37;;;;;;;8.06;59.12;93956.97;5046396;28;20230;-64
2021/12/03 06:58:20;;;;;;;5.20;3.03;;;;;;;8.09;58.71;93961.06;5049518;28;20221;-65
2021/12/03 07:00:52;;;;;;;5.10;2.20;;;;;;;8.27;58.19;93971.38;5036390;28;20256;-68
2021/12/03 07:03:17;;;;;;;3.93;2.67;;;;;;;8.24;58.76;93948.97;5043521;28;20225;-65
2021/12/03 07:05:43;;;;;;;4.80;3.20;;;;;;;8.28;59.04;93959.91;5043388;28;20213;-66
2021/12/03 07:08:08;;;;;;;5.03;3.07;;;;;;;8.30;59.11;93971.88;5041374;28;20230;-64
2021/12/03 07:10:35;;;;;;;4.57;2.87;;;;;;;8.32;57.92;93972.53;5039363;28;20230;-66
2021/12/03 07:13:01;;;;;;;6.27;4.90;;;;;;;8.37;57.84;93970.25;5039995;28;20294;-65
2021/12/03 07:15:27;;;;;;;4.10;2.80;;;;;;;8.51;57.28;93960.94;5037280;28;20241;-69
2021/12/03 07:17:53;;;;;;;3.50;3.20;;;;;;;8.68;56.77;93961.72;5035293;28;20220;-65
2021/12/03 07:20:21;;;;;;;3.80;2.43;;;;;;;8.75;56.03;93967.13;5047498;28;20186;-62
2021/12/03 07:22:47;;;;;;;9.50;2.97;;;;;;;8.76;56.88;93972.19;5042934;28;20217;-66
2021/12/03 07:25:14;;;;;;;4.83;2.73;;;;;;;8.84;57.07;93976.59;5035046;28;20214;-67
2021/12/03 07:27:40;;;;;;;6.10;3.77;;;;;;;8.97;56.47;93973.47;5046020;28;20226;-62
2021/12/03 07:30:08;;;;;;;6.87;4.13;;;;;;;8.97;57.06;93966.41;5035589;28;20230;-67
2021/12/03 07:32:34;;;;;;;7.77;4.10;;;;;;;8.98;57.31;93956.75;5039144;28;20202;-63
2021/12/03 07:35:00;;;;;;;5.13;3.83;;;;;;;9.07;57.75;93961.00;5042707;28;20225;-64
2021/12/03 07:37:26;;;;;;;6.40;3.37;;;;;;;9.05;57.64;93960.34;5039190;28;20221;-64
2021/12/03 07:39:52;;;;;;;5.90;3.07;;;;;;;9.19;56.60;93941.28;5047323;28;20233;-64
2021/12/03 07:42:17;;;;;;;6.10;2.50;;;;;;;9.41;55.79;93944.13;5041879;28;20214;-61
2021/12/03 07:44:43;;;;;;;6.00;2.97;;;;;;;9.59;56.16;93949.16;5036015;28;20253;-62
2021/12/03 07:47:09;;;;;;;4.63;2.60;;;;;;;9.66;56.38;93965.84;5044904;28;20228;-62
2021/12/03 07:49:35;;;;;;;5.03;2.53;;;;;;;9.81;56.57;93964.13;5030750;28;20248;-62
2021/12/03 07:52:01;;;;;;;5.33;2.23;;;;;;;10.02;55.41;93965.31;5037566;28;20226;-62
2021/12/03 07:54:27;;;;;;;3.20;2.07;;;;;;;10.18;54.98;93967.81;5042716;28;20297;-62
2021/12/03 07:56:52;;;;;;;5.57;2.97;;;;;;;10.34;54.83;93965.13;5052142;28;20194;-62
2021/12/03 07:59:18;;;;;;;4.87;2.20;;;;;;;10.60;53.75;93977.88;5037985;28;20274;-62
2021/12/03 08:01:45;;;;;;;4.20;2.03;;;;;;;10.65;53.91;93966.03;5044379;28;20253;-62
2021/12/03 08:04:12;;;;;;;3.67;2.10;;;;;;;10.70;53.77;93989.97;5042759;28;20221;-66
2021/12/03 08:06:39;;;;;;;4.00;2.37;;;;;;;10.65;53.96;93974.72;5039817;28;20293;-65
2021/12/03 08:09:06;;;;;;;5.50;2.27;;;;;;;10.57;54.22;93985.31;5040513;28;20332;-68
2021/12/03 08:11:32;;;;;;;2.97;1.80;;;;;;;10.59;54.35;93972.81;5052451;28;20269;-63
2021/12/03 08:13:57;;;;;;;5.77;1.97;;;;;;;10.75;53.67;93958.72;5039526;28;20225;-64
2021/12/03 08:16:23;;;;;;;7.27;2.27;;;;;;;10.75;53.35;93963.97;5042842;28;20210;-63
2021/12/03 08:18:48;;;;;;;4.73;2.00;;;;;;;10.84;53.47;93981.28;5041425;28;20210;-64
2021/12/03 08:21:14;;;;;;;3.83;1.83;;;;;;;10.91;52.86;94000.63;5040579;28;20222;-64
2021/12/03 08:23:39;;;;;;;7.13;3.00;;;;;;;10.99;53.49;93990.03;5041226;28;20225;-64
2021/12/03 08:26:05;;;;;;;4.00;1.90;;;;;;;11.09;52.27;93979.22;5042178;28;20218;-65
2021/12/03 08:28:32;;;;;;;4.47;2.63;;;;;;;11.19;53.38;93987.69;5039743;28;20240;-64
2021/12/03 08:30:58;;;;;;;7.20;3.37;;;;;;;11.27;52.43;93981.53;5037254;28;20285;-64
2021/12/03 08:33:23;;;;;;;4.77;2.20;;;;;;;11.20;53.18;93970.06;5043868;28;20233;-64
2021/12/03 08:35:49;;;;;;;4.50;1.63;;;;;;;11.31;53.46;93960.94;5039439;28;20280;-63
2021/12/03 08:38:14;;;;;;;4.57;1.80;;;;;;;11.40;51.68;93992.22;5043396;28;20206;-64
2021/12/03 08:40:40;;;;;;;6.00;1.93;;;;;;;11.39;53.13;94001.13;5043032;28;20291;-63
2021/12/03 08:43:05;;;;;;;5.70;2.00;;;;;;;11.40;53.46;93989.59;5040552;28;20260;-64
2021/12/03 08:45:31;;;;;;;4.13;2.13;;;;;;;11.54;52.61;93976.63;5043158;28;20237;-64
2021/12/03 08:48:01;;;;;;;6.30;1.93;;;;;;;11.65;51.39;93986.69;5043098;28;20213;-63
2021/12/03 08:50:30;;;;;;;3.27;1.67;;;;;;;11.74;51.29;93982.16;5042232;28;20198;-63
2021/12/03 08:54:47;;;;;;;6.27;1.90;;;;;;;11.79;51.25;93972.69;5054304;28;20254;-62
2021/12/03 08:56:00;;;;;;;3.63;1.57;;;;;;;11.81;51.57;93993.56;5041542;28;20236;-63
2021/12/03 08:58:27;;;;;;;4.17;1.47;;;;;;;11.73;52.16;93981.31;5041549;28;20214;-63
2021/12/03 09:00:53;;;;;;;2.50;1.43;;;;;;;11.75;50.63;93975.88;5041439;28;20232;-65
2021/12/03 09:03:18;;;;;;;3.57;1.90;;;;;;;11.66;51.88;93980.44;5049486;28;20229;-64
2021/12/03 09:05:46;;;;;;;4.60;1.90;;;;;;;11.80;50.87;93991.94;5038470;28;20214;-64
2021/12/03 09:08:12;;;;;;;5.30;2.00;;;;;;;11.73;50.79;93993.66;5041260;28;20229;-62
2021/12/03 09:10:38;;;;;;;5.27;1.60;;;;;;;11.73;50.41;94006.81;5048919;28;20213;-64
2021/12/03 09:13:04;;;;;;;2.97;1.27;;;;;;;11.78;49.77;94005.28;5040783;28;20271;-66
2021/12/03 09:15:38;;;;;;;5.67;1.40;;;;;;;11.81;49.89;94020.72;5036788;28;20217;-63
2021/12/03 09:23:33;;;;;;;6.43;1.80;;;;;;;11.85;50.18;93979.03;5039903;28;20212;-64
2021/12/03 09:26:14;;;;;;;3.70;1.40;;;;;;;11.94;48.51;94019.28;5042891;28;20218;-64
2021/12/03 09:28:44;;;;;;;5.17;2.13;;;;;;;12.07;47.32;93962.28;5039617;28;20214;-65
2021/12/03 09:31:11;;;;;;;4.83;1.60;;;;;;;12.13;47.94;93993.19;5032198;28;20296;-64
2021/12/03 09:33:39;;;;;;;4.13;1.23;;;;;;;12.11;47.93;94004.91;5032171;28;20213;-64
2021/12/03 09:36:07;;;;;;;5.90;1.57;;;;;;;12.12;47.05;93990.72;5042332;28;20279;-63
2021/12/03 09:38:34;;;;;;;4.17;1.90;;;;;;;12.08;47.76;93986.81;5047543;28;20250;-64
2021/12/03 09:41:11;;;;;;;3.10;1.50;;;;;;;12.10;47.56;93997.97;5046198;28;20214;-66
2021/12/03 09:43:40;;;;;;;3.50;1.20;;;;;;;12.20;46.99;93993.22;5038544;28;20233;-65
2021/12/03 09:46:27;;;;;;;5.70;1.40;;;;;;;12.17;47.27;94012.06;5043408;28;20290;-62
2021/12/03 09:49:18;;;;;;;6.20;1.17;;;;;;;12.30;45.36;93992.94;5036668;28;20535;-63
2021/12/03 09:56:44;;;;;;;4.07;1.10;;;;;;;12.50;44.72;93998.41;5040084;28;20206;-67
2021/12/03 10:02:20;;;;;;;7.20;2.27;;;;;;;12.60;46.43;93998.09;5036820;28;20283;-63
2021/12/03 10:13:05;;;;;;;6.87;2.00;;;;;;;12.73;46.39;93977.91;4986484;28;20318;-64
2021/12/03 10:15:43;;;;;;;7.40;1.53;;;;;;;12.79;45.25;93982.41;4990260;28;20228;-64
2021/12/03 10:18:23;;;;;;;5.43;2.10;;;;;;;12.86;44.76;93979.84;4984181;28;20366;-65
2021/12/03 10:37:29;;;;;;;7.47;1.77;;;;;;;13.70;41.58;93960.47;4879406;29;20290;-67
2021/12/03 10:40:09;;;;;;;3.13;1.60;;;;;;;14.04;42.74;93974.66;4874806;29;20228;-63
2021/12/03 10:50:22;;;;;;;5.97;1.90;;;;;;;14.45;40.45;93963.97;4902474;29;20290;-64
2021/12/03 11:15:08;;;;;;;7.83;1.53;;;;;;;14.01;41.91;93977.69;5041930;28;20218;-63
2021/12/03 11:44:54;;;;;;;5.03;2.00;;;;;;;14.15;41.28;93963.50;5045156;28;20229;-64
2021/12/03 11:47:52;;;;;;;7.07;1.67;;;;;;;14.37;40.49;93944.81;5038952;28;20281;-64
2021/12/03 12:19:28;;;;;;;3.40;1.40;;;;;;;14.47;38.56;93947.91;5000880;28;20265;-64
2021/12/03 12:44:35;;;;;;;4.13;1.70;;;;;;;13.38;41.94;93915.22;4916616;29;20435;-65
2021/12/03 14:05:27;;;;;;;2.77;1.20;;;;;;;12.72;43.62;93965.75;5042885;28;20244;-66
2021/12/03 14:44:52;;;;;;;4.13;1.60;;;;;;;12.17;45.96;93967.25;5046312;28;20217;-64
2021/12/03 14:55:34;;;;;;;6.10;2.33;;;;;;;12.14;44.93;93989.53;5011968;28;20215;-67
2021/12/03 14:58:10;;;;;;;7.17;2.10;;;;;;;12.10;45.35;93984.81;4985608;28;20237;-64
2021/12/03 15:03:15;;;;;;;6.03;2.07;;;;;;;12.07;46.60;93969.38;5001296;28;20230;-64
2021/12/03 15:08:14;;;;;;;5.77;2.17;;;;;;;12.04;45.78;93977.66;5002949;28;20223;-63
2021/12/03 15:31:45;;;;;;;7.70;3.37;;;;;;;12.20;44.34;94016.13;4983011;28;20235;-64
2021/12/03 15:56:16;;;;;;;4.93;1.60;;;;;;;11.94;46.25;94019.28;5043181;28;20219;-63
2021/12/03 16:09:15;;;;;;;6.17;3.40;;;;;;;11.85;48.64;94063.31;5041837;28;20209;-65
2021/12/03 16:12:07;;;;;;;5.37;2.50;;;;;;;11.71;49.31;94062.31;5041014;28;20201;-63
2021/12/03 16:17:41;;;;;;;15.77;10.30;;;;;;;11.44;50.70;94058.47;5043746;28;20241;-68
2021/12/03 16:52:00;;;;;;;5.43;3.10;;;;;;;9.41;58.15;94131.28;4996843;28;20289;-64
2021/12/03 16:55:07;;;;;;;4.27;2.70;;;;;;;9.35;57.93;94133.72;5001030;28;20286;-64
2021/12/03 16:57:16;;;;;;;4.13;2.70;;;;;;;9.20;58.23;94141.47;4995309;28;20222;-63
2021/12/03 16:59:44;;;;;;;2.90;2.30;;;;;;;8.99;58.57;94153.25;4998509;28;20196;-63
2021/12/03 17:02:19;;;;;;;4.33;2.37;;;;;;;8.91;59.31;94170.78;4992984;28;20216;-64
2021/12/03 17:04:59;;;;;;;3.40;2.43;;;;;;;8.90;59.18;94161.25;4992216;28;20270;-64
2021/12/03 17:29:30;;;;;;;4.37;3.67;;;;;;;8.43;60.35;94182.78;5018169;28;20236;-64
2021/12/03 17:50:43;;;;;;;3.67;2.60;;;;;;;8.34;59.36;94245.59;5040251;28;20216;-65
2021/12/03 17:53:43;;;;;;;3.77;2.87;;;;;;;8.29;59.49;94237.41;5036896;28;20233;-64
2021/12/03 18:01:07;;;;;;;4.53;3.20;;;;;;;8.08;61.20;94284.09;5036499;28;20222;-63
2021/12/03 18:03:53;;;;;;;3.80;2.77;;;;;;;8.12;60.46;94285.41;5039901;28;20233;-67
2021/12/03 18:43:23;;;;;;;2.97;2.50;;;;;;;6.89;62.85;94304.47;5045950;28;20232;-62
2021/12/03 18:56:49;;;;;;;2.77;2.00;;;;;;;6.02;68.03;94323.97;5005285;28;20288;-63
2021/12/03 18:59:16;;;;;;;2.33;2.07;;;;;;;5.80;68.99;94314.63;5006768;28;20208;-61
2021/12/03 19:01:43;;;;;;;2.87;2.20;;;;;;;5.83;68.31;94307.34;5009977;28;20219;-62
2021/12/03 19:06:43;;;;;;;3.33;2.30;;;;;;;5.74;69.42;94303.78;5004949;28;20238;-66
2021/12/03 19:09:14;;;;;;;3.23;2.17;;;;;;;5.75;69.07;94302.00;5003649;28;20242;-64
2021/12/03 19:14:25;;;;;;;2.67;1.70;;;;;;;5.63;68.44;94314.38;5002110;28;20223;-66
2021/12/03 19:16:51;;;;;;;3.53;1.87;;;;;;;5.44;69.01;94319.59;4988987;28;20219;-67
2021/12/03 19:19:18;;;;;;;4.10;2.27;;;;;;;5.30;70.20;94313.84;4984243;28;20278;-65
2021/12/03 19:21:46;;;;;;;2.70;2.17;;;;;;;5.28;70.87;94325.34;5001546;28;20329;-66
2021/12/03 19:24:13;;;;;;;2.83;1.97;;;;;;;5.39;70.81;94322.59;5003491;28;20235;-64